createdAt,value
2022-11-17T00:21:39.880Z,2.02
2022-11-17T00:51:42.795Z,2.08
2022-11-17T01:21:47.167Z,2.11
2022-11-17T01:51:50.225Z,2.13
2022-11-17T02:21:54.314Z,2.14
2022-11-17T02:51:57.123Z,2.05
2022-11-17T03:22:01.272Z,2.04
2022-11-17T03:52:04.163Z,2.02
2022-11-17T04:22:07.167Z,1.95
2022-11-17T04:52:10.630Z,1.86
2022-11-17T05:22:13.603Z,1.74
2022-11-17T05:52:17.077Z,1.68
2022-11-17T06:22:20.191Z,1.63
2022-11-17T06:52:23.536Z,1.62
2022-11-17T07:22:26.606Z,1.61
2022-11-17T07:52:30.133Z,1.55
2022-11-17T08:22:33.731Z,1.52
2022-11-17T08:52:37.368Z,1.55
2022-11-17T09:22:40.986Z,1.44
2022-11-17T09:52:44.463Z,1.36
2022-11-17T10:22:48.006Z,1.38
2022-11-17T10:52:51.398Z,1.55
2022-11-17T11:22:55.008Z,1.59
2022-11-17T11:52:58.562Z,1.46
2022-11-17T12:23:02.149Z,1.27
2022-11-17T12:53:05.716Z,1.21
2022-11-17T13:23:09.204Z,1.20
2022-11-17T13:53:12.631Z,0.97
2022-11-17T14:23:16.127Z,0.84
2022-11-17T14:53:19.571Z,0.65
2022-11-17T15:23:23.106Z,0.43
2022-11-17T15:53:27.042Z,0.31
2022-11-17T16:23:30.015Z,0.30
2022-11-17T16:53:33.563Z,0.23
2022-11-17T17:23:37.313Z,0.03
2022-11-17T17:53:40.642Z,-0.30
2022-11-17T18:23:43.805Z,-0.48
2022-11-17T18:53:47.441Z,-0.56
2022-11-17T19:23:52.111Z,-0.58
2022-11-17T19:53:55.492Z,-0.70
2022-11-17T20:23:58.987Z,-0.74
2022-11-17T20:54:02.122Z,-0.82
2022-11-17T21:24:05.424Z,-0.96
2022-11-17T21:54:08.882Z,-1.04
2022-11-17T22:24:12.663Z,-1.10
2022-11-17T22:54:15.896Z,-1.31
2022-11-17T23:24:19.418Z,-1.44
2022-11-17T23:54:23.255Z,-1.40
